sensor_id;sensor_type;location;lat;lon;timestamp;P1;durP1;ratioP1;P2;durP2;ratioP2
54259;SDS011;40172;53.022;7.012;2022-09-09T00:01:43;264.83;;;22.63;;
54259;SDS011;40172;53.022;7.012;2022-09-09T00:10:09;18.90;;;13.07;;
54259;SDS011;40172;53.022;7.012;2022-09-09T00:12:55;32.03;;;18.15;;
54259;SDS011;40172;53.022;7.012;2022-09-09T00:15:31;31.20;;;18.55;;
54259;SDS011;40172;53.022;7.012;2022-09-09T00:26:08;35.70;;;20.17;;
54259;SDS011;40172;53.022;7.012;2022-09-09T00:28:45;31.85;;;19.13;;
54259;SDS011;40172;53.022;7.012;2022-09-09T00:34:18;23.27;;;15.45;;
54259;SDS011;40172;53.022;7.012;2022-09-09T00:36:47;30.42;;;17.88;;
54259;SDS011;40172;53.022;7.012;2022-09-09T00:39:25;31.83;;;18.20;;
54259;SDS011;40172;53.022;7.012;2022-09-09T00:44:39;29.52;;;18.00;;
54259;SDS011;40172;53.022;7.012;2022-09-09T00:47:27;20.75;;;15.15;;
54259;SDS011;40172;53.022;7.012;2022-09-09T00:56:08;33.97;;;16.15;;
54259;SDS011;40172;53.022;7.012;2022-09-09T00:58:35;31.45;;;17.75;;
54259;SDS011;40172;53.022;7.012;2022-09-09T01:01:08;34.50;;;17.52;;
54259;SDS011;40172;53.022;7.012;2022-09-09T01:06:25;33.03;;;16.42;;
54259;SDS011;40172;53.022;7.012;2022-09-09T01:21:19;34.45;;;14.95;;
54259;SDS011;40172;53.022;7.012;2022-09-09T01:27:01;27.90;;;16.92;;
54259;SDS011;40172;53.022;7.012;2022-09-09T01:29:40;31.40;;;17.92;;
54259;SDS011;40172;53.022;7.012;2022-09-09T01:35:05;31.02;;;17.83;;
54259;SDS011;40172;53.022;7.012;2022-09-09T01:37:35;32.20;;;17.45;;
54259;SDS011;40172;53.022;7.012;2022-09-09T01:40:01;34.97;;;18.17;;
54259;SDS011;40172;53.022;7.012;2022-09-09T01:42:27;31.08;;;17.75;;
54259;SDS011;40172;53.022;7.012;2022-09-09T01:44:53;27.67;;;17.35;;
54259;SDS011;40172;53.022;7.012;2022-09-09T01:47:20;28.83;;;16.83;;
54259;SDS011;40172;53.022;7.012;2022-09-09T01:49:45;31.10;;;16.75;;
54259;SDS011;40172;53.022;7.012;2022-09-09T01:52:11;32.13;;;16.58;;
54259;SDS011;40172;53.022;7.012;2022-09-09T01:54:39;34.85;;;17.10;;
54259;SDS011;40172;53.022;7.012;2022-09-09T02:05:05;27.15;;;16.13;;
54259;SDS011;40172;53.022;7.012;2022-09-09T02:07:39;30.15;;;15.73;;
54259;SDS011;40172;53.022;7.012;2022-09-09T02:12:42;29.95;;;15.57;;
54259;SDS011;40172;53.022;7.012;2022-09-09T02:15:16;22.48;;;14.60;;
54259;SDS011;40172;53.022;7.012;2022-09-09T02:17:49;25.95;;;15.00;;
54259;SDS011;40172;53.022;7.012;2022-09-09T02:20:17;27.38;;;14.10;;
54259;SDS011;40172;53.022;7.012;2022-09-09T02:22:44;20.40;;;12.68;;
54259;SDS011;40172;53.022;7.012;2022-09-09T02:25:14;24.75;;;13.23;;
54259;SDS011;40172;53.022;7.012;2022-09-09T02:27:43;26.67;;;13.50;;
54259;SDS011;40172;53.022;7.012;2022-09-09T02:30:12;21.05;;;12.68;;
54259;SDS011;40172;53.022;7.012;2022-09-09T02:32:38;19.88;;;11.88;;
54259;SDS011;40172;53.022;7.012;2022-09-09T02:35:10;18.60;;;11.20;;
54259;SDS011;40172;53.022;7.012;2022-09-09T02:37:39;17.03;;;10.53;;
54259;SDS011;40172;53.022;7.012;2022-09-09T02:40:07;17.75;;;10.45;;
54259;SDS011;40172;53.022;7.012;2022-09-09T02:42:42;20.20;;;10.10;;
54259;SDS011;40172;53.022;7.012;2022-09-09T02:45:11;21.90;;;10.50;;
54259;SDS011;40172;53.022;7.012;2022-09-09T02:47:46;18.98;;;9.45;;
54259;SDS011;40172;53.022;7.012;2022-09-09T02:50:23;18.17;;;9.15;;
54259;SDS011;40172;53.022;7.012;2022-09-09T02:55:35;15.95;;;8.32;;
54259;SDS011;40172;53.022;7.012;2022-09-09T02:58:12;15.95;;;8.95;;
54259;SDS011;40172;53.022;7.012;2022-09-09T03:00:45;16.10;;;8.32;;
54259;SDS011;40172;53.022;7.012;2022-09-09T03:03:12;16.35;;;8.18;;
54259;SDS011;40172;53.022;7.012;2022-09-09T03:05:38;14.93;;;7.72;;
54259;SDS011;40172;53.022;7.012;2022-09-09T03:08:05;14.88;;;7.97;;
54259;SDS011;40172;53.022;7.012;2022-09-09T03:10:31;16.10;;;8.30;;
54259;SDS011;40172;53.022;7.012;2022-09-09T03:12:57;14.38;;;8.70;;
54259;SDS011;40172;53.022;7.012;2022-09-09T03:15:23;17.90;;;9.02;;
54259;SDS011;40172;53.022;7.012;2022-09-09T03:17:49;17.92;;;9.75;;
54259;SDS011;40172;53.022;7.012;2022-09-09T03:20:14;16.40;;;9.68;;
54259;SDS011;40172;53.022;7.012;2022-09-09T03:22:40;17.33;;;9.82;;
54259;SDS011;40172;53.022;7.012;2022-09-09T03:25:06;17.10;;;11.20;;
54259;SDS011;40172;53.022;7.012;2022-09-09T03:27:31;21.85;;;11.32;;
54259;SDS011;40172;53.022;7.012;2022-09-09T03:29:57;17.45;;;11.18;;
54259;SDS011;40172;53.022;7.012;2022-09-09T03:32:23;19.73;;;12.00;;
54259;SDS011;40172;53.022;7.012;2022-09-09T03:34:50;19.35;;;11.65;;
54259;SDS011;40172;53.022;7.012;2022-09-09T03:37:17;22.02;;;12.02;;
54259;SDS011;40172;53.022;7.012;2022-09-09T03:39:43;17.58;;;11.43;;
54259;SDS011;40172;53.022;7.012;2022-09-09T03:42:09;24.13;;;11.55;;
54259;SDS011;40172;53.022;7.012;2022-09-09T03:44:37;17.25;;;12.20;;
54259;SDS011;40172;53.022;7.012;2022-09-09T03:47:03;17.67;;;12.27;;
54259;SDS011;40172;53.022;7.012;2022-09-09T03:49:28;18.58;;;12.57;;
54259;SDS011;40172;53.022;7.012;2022-09-09T03:51:57;18.30;;;11.88;;
54259;SDS011;40172;53.022;7.012;2022-09-09T03:54:24;25.25;;;13.65;;
54259;SDS011;40172;53.022;7.012;2022-09-09T03:56:50;19.52;;;12.88;;
54259;SDS011;40172;53.022;7.012;2022-09-09T03:59:15;20.50;;;13.25;;
54259;SDS011;40172;53.022;7.012;2022-09-09T04:01:41;17.08;;;13.85;;
54259;SDS011;40172;53.022;7.012;2022-09-09T04:04:07;18.20;;;12.60;;
54259;SDS011;40172;53.022;7.012;2022-09-09T04:06:33;18.08;;;13.05;;
54259;SDS011;40172;53.022;7.012;2022-09-09T04:09:00;22.83;;;12.93;;
54259;SDS011;40172;53.022;7.012;2022-09-09T04:11:27;16.98;;;12.95;;
54259;SDS011;40172;53.022;7.012;2022-09-09T04:13:53;18.90;;;12.13;;
54259;SDS011;40172;53.022;7.012;2022-09-09T04:16:19;19.25;;;12.25;;
54259;SDS011;40172;53.022;7.012;2022-09-09T04:18:45;16.85;;;11.75;;
54259;SDS011;40172;53.022;7.012;2022-09-09T04:21:11;17.20;;;11.18;;
54259;SDS011;40172;53.022;7.012;2022-09-09T04:23:37;15.65;;;10.43;;
54259;SDS011;40172;53.022;7.012;2022-09-09T04:26:05;18.77;;;9.85;;
54259;SDS011;40172;53.022;7.012;2022-09-09T04:28:31;15.20;;;9.45;;
54259;SDS011;40172;53.022;7.012;2022-09-09T04:31:09;18.70;;;8.60;;
54259;SDS011;40172;53.022;7.012;2022-09-09T04:33:47;13.40;;;7.07;;
54259;SDS011;40172;53.022;7.012;2022-09-09T04:36:13;10.63;;;6.40;;
54259;SDS011;40172;53.022;7.012;2022-09-09T04:38:39;9.70;;;6.15;;
54259;SDS011;40172;53.022;7.012;2022-09-09T04:41:05;9.13;;;5.80;;
54259;SDS011;40172;53.022;7.012;2022-09-09T04:43:31;8.52;;;5.72;;
54259;SDS011;40172;53.022;7.012;2022-09-09T04:45:56;9.77;;;5.88;;
54259;SDS011;40172;53.022;7.012;2022-09-09T04:48:24;8.90;;;5.68;;
54259;SDS011;40172;53.022;7.012;2022-09-09T04:51:09;8.15;;;5.82;;
54259;SDS011;40172;53.022;7.012;2022-09-09T04:53:36;9.00;;;5.85;;
54259;SDS011;40172;53.022;7.012;2022-09-09T04:56:03;9.77;;;6.28;;
54259;SDS011;40172;53.022;7.012;2022-09-09T04:58:30;11.82;;;6.55;;
54259;SDS011;40172;53.022;7.012;2022-09-09T05:01:04;11.55;;;6.97;;
54259;SDS011;40172;53.022;7.012;2022-09-09T05:03:34;11.45;;;7.65;;
54259;SDS011;40172;53.022;7.012;2022-09-09T05:06:03;13.68;;;7.80;;
54259;SDS011;40172;53.022;7.012;2022-09-09T05:08:30;13.30;;;7.72;;
54259;SDS011;40172;53.022;7.012;2022-09-09T05:10:56;13.15;;;7.57;;
54259;SDS011;40172;53.022;7.012;2022-09-09T05:13:24;15.77;;;8.30;;
54259;SDS011;40172;53.022;7.012;2022-09-09T05:15:51;13.55;;;8.82;;
54259;SDS011;40172;53.022;7.012;2022-09-09T05:18:18;11.07;;;8.85;;
54259;SDS011;40172;53.022;7.012;2022-09-09T05:20:43;14.98;;;8.88;;
54259;SDS011;40172;53.022;7.012;2022-09-09T05:23:12;15.27;;;8.95;;
54259;SDS011;40172;53.022;7.012;2022-09-09T05:25:38;15.57;;;8.98;;
54259;SDS011;40172;53.022;7.012;2022-09-09T05:28:05;19.40;;;9.82;;
54259;SDS011;40172;53.022;7.012;2022-09-09T05:30:32;17.08;;;9.35;;
54259;SDS011;40172;53.022;7.012;2022-09-09T05:32:58;11.63;;;9.20;;
54259;SDS011;40172;53.022;7.012;2022-09-09T05:35:24;15.15;;;9.93;;
54259;SDS011;40172;53.022;7.012;2022-09-09T05:37:50;15.88;;;9.88;;
54259;SDS011;40172;53.022;7.012;2022-09-09T05:40:16;17.35;;;9.85;;
54259;SDS011;40172;53.022;7.012;2022-09-09T05:42:41;15.45;;;9.25;;
54259;SDS011;40172;53.022;7.012;2022-09-09T05:45:07;15.57;;;9.88;;
54259;SDS011;40172;53.022;7.012;2022-09-09T05:47:34;13.70;;;8.98;;
54259;SDS011;40172;53.022;7.012;2022-09-09T05:50:02;17.13;;;9.63;;
54259;SDS011;40172;53.022;7.012;2022-09-09T05:52:28;16.63;;;9.73;;
54259;SDS011;40172;53.022;7.012;2022-09-09T05:54:54;16.38;;;9.38;;
54259;SDS011;40172;53.022;7.012;2022-09-09T05:57:20;15.70;;;9.93;;
54259;SDS011;40172;53.022;7.012;2022-09-09T05:59:45;11.50;;;9.15;;
54259;SDS011;40172;53.022;7.012;2022-09-09T06:02:11;14.10;;;9.73;;
54259;SDS011;40172;53.022;7.012;2022-09-09T06:04:38;17.40;;;10.07;;
54259;SDS011;40172;53.022;7.012;2022-09-09T06:07:04;14.57;;;8.95;;
54259;SDS011;40172;53.022;7.012;2022-09-09T06:09:30;15.60;;;9.40;;
54259;SDS011;40172;53.022;7.012;2022-09-09T06:11:55;14.43;;;9.98;;
54259;SDS011;40172;53.022;7.012;2022-09-09T06:14:22;14.45;;;9.55;;
54259;SDS011;40172;53.022;7.012;2022-09-09T06:16:48;11.23;;;8.60;;
54259;SDS011;40172;53.022;7.012;2022-09-09T06:19:14;11.70;;;8.80;;
54259;SDS011;40172;53.022;7.012;2022-09-09T06:21:39;15.25;;;9.43;;
54259;SDS011;40172;53.022;7.012;2022-09-09T06:24:06;14.10;;;8.82;;
54259;SDS011;40172;53.022;7.012;2022-09-09T06:26:36;11.35;;;8.32;;
54259;SDS011;40172;53.022;7.012;2022-09-09T06:29:06;12.18;;;8.38;;
54259;SDS011;40172;53.022;7.012;2022-09-09T06:31:33;11.85;;;7.95;;
54259;SDS011;40172;53.022;7.012;2022-09-09T06:34:02;12.32;;;7.68;;
54259;SDS011;40172;53.022;7.012;2022-09-09T06:36:30;13.63;;;8.23;;
54259;SDS011;40172;53.022;7.012;2022-09-09T06:38:58;11.57;;;7.40;;
54259;SDS011;40172;53.022;7.012;2022-09-09T06:41:25;9.65;;;7.07;;
54259;SDS011;40172;53.022;7.012;2022-09-09T06:43:55;7.93;;;7.10;;
54259;SDS011;40172;53.022;7.012;2022-09-09T06:46:22;11.25;;;7.47;;
54259;SDS011;40172;53.022;7.012;2022-09-09T06:48:53;10.60;;;6.88;;
54259;SDS011;40172;53.022;7.012;2022-09-09T06:51:25;12.80;;;7.30;;
54259;SDS011;40172;53.022;7.012;2022-09-09T06:53:56;10.75;;;7.30;;
54259;SDS011;40172;53.022;7.012;2022-09-09T06:56:30;7.90;;;6.70;;
54259;SDS011;40172;53.022;7.012;2022-09-09T06:58:57;9.13;;;6.85;;
54259;SDS011;40172;53.022;7.012;2022-09-09T07:01:29;8.90;;;6.05;;
54259;SDS011;40172;53.022;7.012;2022-09-09T07:03:57;9.27;;;6.35;;
54259;SDS011;40172;53.022;7.012;2022-09-09T07:06:25;7.93;;;5.72;;
54259;SDS011;40172;53.022;7.012;2022-09-09T07:09:02;9.48;;;6.05;;
54259;SDS011;40172;53.022;7.012;2022-09-09T07:11:30;8.15;;;5.85;;
54259;SDS011;40172;53.022;7.012;2022-09-09T07:13:58;7.47;;;5.43;;
54259;SDS011;40172;53.022;7.012;2022-09-09T07:16:25;11.55;;;5.43;;
54259;SDS011;40172;53.022;7.012;2022-09-09T07:18:52;7.88;;;5.20;;
54259;SDS011;40172;53.022;7.012;2022-09-09T07:21:23;7.57;;;5.35;;
54259;SDS011;40172;53.022;7.012;2022-09-09T07:23:51;7.28;;;5.32;;
54259;SDS011;40172;53.022;7.012;2022-09-09T07:26:17;8.88;;;5.30;;
54259;SDS011;40172;53.022;7.012;2022-09-09T07:28:44;8.55;;;5.25;;
54259;SDS011;40172;53.022;7.012;2022-09-09T07:31:14;9.57;;;5.15;;
54259;SDS011;40172;53.022;7.012;2022-09-09T07:33:42;6.95;;;5.30;;
54259;SDS011;40172;53.022;7.012;2022-09-09T07:36:18;8.63;;;5.53;;
54259;SDS011;40172;53.022;7.012;2022-09-09T07:38:51;5.95;;;4.97;;
54259;SDS011;40172;53.022;7.012;2022-09-09T07:41:20;5.93;;;4.88;;
54259;SDS011;40172;53.022;7.012;2022-09-09T07:43:48;7.78;;;4.60;;
54259;SDS011;40172;53.022;7.012;2022-09-09T07:46:15;7.32;;;5.32;;
54259;SDS011;40172;53.022;7.012;2022-09-09T07:48:46;7.53;;;5.00;;
54259;SDS011;40172;53.022;7.012;2022-09-09T07:53:44;5.80;;;4.53;;
54259;SDS011;40172;53.022;7.012;2022-09-09T07:56:12;7.80;;;5.00;;
54259;SDS011;40172;53.022;7.012;2022-09-09T07:58:40;7.05;;;4.72;;
54259;SDS011;40172;53.022;7.012;2022-09-09T08:01:07;7.63;;;4.75;;
54259;SDS011;40172;53.022;7.012;2022-09-09T08:03:33;7.47;;;4.88;;
54259;SDS011;40172;53.022;7.012;2022-09-09T08:06:00;9.88;;;4.75;;
54259;SDS011;40172;53.022;7.012;2022-09-09T08:08:27;6.40;;;4.68;;
54259;SDS011;40172;53.022;7.012;2022-09-09T08:10:53;8.40;;;4.53;;
54259;SDS011;40172;53.022;7.012;2022-09-09T08:13:46;5.55;;;4.03;;
54259;SDS011;40172;53.022;7.012;2022-09-09T08:16:19;9.23;;;4.90;;
54259;SDS011;40172;53.022;7.012;2022-09-09T08:18:47;6.10;;;3.78;;
54259;SDS011;40172;53.022;7.012;2022-09-09T08:21:15;7.32;;;3.90;;
54259;SDS011;40172;53.022;7.012;2022-09-09T08:23:43;6.90;;;4.00;;
54259;SDS011;40172;53.022;7.012;2022-09-09T08:26:11;7.82;;;4.03;;
54259;SDS011;40172;53.022;7.012;2022-09-09T08:28:47;6.32;;;3.80;;
54259;SDS011;40172;53.022;7.012;2022-09-09T08:31:17;9.10;;;4.22;;
54259;SDS011;40172;53.022;7.012;2022-09-09T08:33:45;8.38;;;4.22;;
54259;SDS011;40172;53.022;7.012;2022-09-09T08:36:13;8.48;;;4.07;;
54259;SDS011;40172;53.022;7.012;2022-09-09T08:38:40;7.03;;;4.00;;
54259;SDS011;40172;53.022;7.012;2022-09-09T08:44:10;9.38;;;4.30;;
54259;SDS011;40172;53.022;7.012;2022-09-09T08:46:59;9.15;;;4.03;;
54259;SDS011;40172;53.022;7.012;2022-09-09T08:52:22;7.38;;;4.07;;
54259;SDS011;40172;53.022;7.012;2022-09-09T08:57:25;7.00;;;3.80;;
54259;SDS011;40172;53.022;7.012;2022-09-09T08:59:53;9.30;;;4.32;;
54259;SDS011;40172;53.022;7.012;2022-09-09T09:02:31;7.03;;;3.90;;
54259;SDS011;40172;53.022;7.012;2022-09-09T09:05:19;6.68;;;3.65;;
54259;SDS011;40172;53.022;7.012;2022-09-09T09:10:46;9.77;;;3.70;;
54259;SDS011;40172;53.022;7.012;2022-09-09T09:15:46;7.78;;;3.95;;
54259;SDS011;40172;53.022;7.012;2022-09-09T09:18:31;10.25;;;3.78;;
54259;SDS011;40172;53.022;7.012;2022-09-09T09:23:34;12.52;;;3.80;;
54259;SDS011;40172;53.022;7.012;2022-09-09T09:26:13;8.60;;;3.50;;
54259;SDS011;40172;53.022;7.012;2022-09-09T09:28:40;8.40;;;3.33;;
54259;SDS011;40172;53.022;7.012;2022-09-09T09:31:06;10.23;;;4.18;;
54259;SDS011;40172;53.022;7.012;2022-09-09T09:36:12;10.38;;;3.80;;
54259;SDS011;40172;53.022;7.012;2022-09-09T09:38:51;9.40;;;3.95;;
54259;SDS011;40172;53.022;7.012;2022-09-09T09:44:04;13.30;;;4.22;;
54259;SDS011;40172;53.022;7.012;2022-09-09T09:46:31;8.18;;;4.00;;
54259;SDS011;40172;53.022;7.012;2022-09-09T09:49:01;9.57;;;3.65;;
54259;SDS011;40172;53.022;7.012;2022-09-09T09:51:30;7.75;;;3.15;;
54259;SDS011;40172;53.022;7.012;2022-09-09T09:54:03;9.63;;;2.97;;
54259;SDS011;40172;53.022;7.012;2022-09-09T09:56:31;11.88;;;3.05;;
54259;SDS011;40172;53.022;7.012;2022-09-09T09:58:57;9.77;;;2.65;;
54259;SDS011;40172;53.022;7.012;2022-09-09T10:01:24;9.68;;;2.30;;
54259;SDS011;40172;53.022;7.012;2022-09-09T10:03:57;13.68;;;2.97;;
54259;SDS011;40172;53.022;7.012;2022-09-09T10:06:45;11.88;;;2.85;;
54259;SDS011;40172;53.022;7.012;2022-09-09T10:09:27;10.30;;;3.10;;
54259;SDS011;40172;53.022;7.012;2022-09-09T10:15:23;10.52;;;3.17;;
54259;SDS011;40172;53.022;7.012;2022-09-09T10:17:54;11.90;;;2.67;;
54259;SDS011;40172;53.022;7.012;2022-09-09T10:20:45;11.60;;;2.85;;
54259;SDS011;40172;53.022;7.012;2022-09-09T10:26:15;11.52;;;2.30;;
54259;SDS011;40172;53.022;7.012;2022-09-09T10:34:23;8.68;;;2.58;;
54259;SDS011;40172;53.022;7.012;2022-09-09T10:36:54;11.32;;;2.55;;
54259;SDS011;40172;53.022;7.012;2022-09-09T10:39:35;11.32;;;2.58;;
54259;SDS011;40172;53.022;7.012;2022-09-09T10:42:15;9.35;;;2.10;;
54259;SDS011;40172;53.022;7.012;2022-09-09T10:50:28;8.38;;;2.20;;
54259;SDS011;40172;53.022;7.012;2022-09-09T10:55:43;12.82;;;2.08;;
54259;SDS011;40172;53.022;7.012;2022-09-09T10:58:20;10.27;;;2.00;;
54259;SDS011;40172;53.022;7.012;2022-09-09T11:00:56;11.38;;;2.20;;
54259;SDS011;40172;53.022;7.012;2022-09-09T11:03:28;7.90;;;1.98;;
54259;SDS011;40172;53.022;7.012;2022-09-09T11:06:32;9.32;;;2.33;;
54259;SDS011;40172;53.022;7.012;2022-09-09T11:08:53;10.93;;;2.00;;
54259;SDS011;40172;53.022;7.012;2022-09-09T11:11:33;12.02;;;2.17;;
54259;SDS011;40172;53.022;7.012;2022-09-09T11:16:56;8.95;;;2.53;;
54259;SDS011;40172;53.022;7.012;2022-09-09T11:19:35;8.23;;;2.00;;
54259;SDS011;40172;53.022;7.012;2022-09-09T11:25:05;9.57;;;1.77;;
54259;SDS011;40172;53.022;7.012;2022-09-09T11:33:46;7.05;;;2.40;;
54259;SDS011;40172;53.022;7.012;2022-09-09T11:39:21;5.97;;;1.60;;
54259;SDS011;40172;53.022;7.012;2022-09-09T11:42:05;8.60;;;2.03;;
54259;SDS011;40172;53.022;7.012;2022-09-09T11:44:32;8.68;;;1.80;;
54259;SDS011;40172;53.022;7.012;2022-09-09T11:46:58;11.02;;;2.00;;
54259;SDS011;40172;53.022;7.012;2022-09-09T11:49:28;11.13;;;2.08;;
54259;SDS011;40172;53.022;7.012;2022-09-09T11:52:21;6.50;;;1.77;;
54259;SDS011;40172;53.022;7.012;2022-09-09T11:54:50;6.20;;;1.88;;
54259;SDS011;40172;53.022;7.012;2022-09-09T11:57:39;8.52;;;1.67;;
54259;SDS011;40172;53.022;7.012;2022-09-09T12:00:03;7.90;;;1.70;;
54259;SDS011;40172;53.022;7.012;2022-09-09T12:02:30;6.35;;;1.63;;
54259;SDS011;40172;53.022;7.012;2022-09-09T12:05:07;5.88;;;1.60;;
54259;SDS011;40172;53.022;7.012;2022-09-09T12:12:37;5.43;;;1.55;;
54259;SDS011;40172;53.022;7.012;2022-09-09T12:15:17;7.53;;;1.90;;
54259;SDS011;40172;53.022;7.012;2022-09-09T12:17:51;9.88;;;1.90;;
54259;SDS011;40172;53.022;7.012;2022-09-09T12:20:23;11.98;;;1.92;;
54259;SDS011;40172;53.022;7.012;2022-09-09T12:25:52;7.25;;;1.75;;
54259;SDS011;40172;53.022;7.012;2022-09-09T12:28:27;7.22;;;1.40;;
54259;SDS011;40172;53.022;7.012;2022-09-09T12:31:17;8.55;;;1.80;;
54259;SDS011;40172;53.022;7.012;2022-09-09T12:34:11;7.55;;;1.70;;
54259;SDS011;40172;53.022;7.012;2022-09-09T12:36:55;8.95;;;1.63;;
54259;SDS011;40172;53.022;7.012;2022-09-09T12:39:28;5.10;;;1.50;;
54259;SDS011;40172;53.022;7.012;2022-09-09T12:42:16;5.60;;;1.42;;
54259;SDS011;40172;53.022;7.012;2022-09-09T12:44:52;6.88;;;1.63;;
54259;SDS011;40172;53.022;7.012;2022-09-09T12:47:19;5.85;;;1.42;;
54259;SDS011;40172;53.022;7.012;2022-09-09T12:49:48;7.80;;;1.50;;
54259;SDS011;40172;53.022;7.012;2022-09-09T12:52:23;5.28;;;1.27;;
54259;SDS011;40172;53.022;7.012;2022-09-09T12:55:01;5.57;;;1.40;;
54259;SDS011;40172;53.022;7.012;2022-09-09T12:57:38;5.45;;;1.50;;
54259;SDS011;40172;53.022;7.012;2022-09-09T13:00:12;4.55;;;1.40;;
54259;SDS011;40172;53.022;7.012;2022-09-09T13:02:49;7.32;;;1.42;;
54259;SDS011;40172;53.022;7.012;2022-09-09T13:05:23;5.90;;;1.58;;
54259;SDS011;40172;53.022;7.012;2022-09-09T13:07:50;9.70;;;1.35;;
54259;SDS011;40172;53.022;7.012;2022-09-09T13:10:24;6.75;;;1.48;;
54259;SDS011;40172;53.022;7.012;2022-09-09T13:12:52;8.52;;;1.50;;
54259;SDS011;40172;53.022;7.012;2022-09-09T13:15:20;6.78;;;1.63;;
54259;SDS011;40172;53.022;7.012;2022-09-09T13:17:49;5.65;;;1.52;;
54259;SDS011;40172;53.022;7.012;2022-09-09T13:20:18;8.68;;;1.50;;
54259;SDS011;40172;53.022;7.012;2022-09-09T13:22:47;5.25;;;1.30;;
54259;SDS011;40172;53.022;7.012;2022-09-09T13:25:20;8.57;;;1.75;;
54259;SDS011;40172;53.022;7.012;2022-09-09T13:27:56;5.22;;;1.30;;
54259;SDS011;40172;53.022;7.012;2022-09-09T13:30:29;6.63;;;1.65;;
54259;SDS011;40172;53.022;7.012;2022-09-09T13:38:53;10.93;;;1.27;;
54259;SDS011;40172;53.022;7.012;2022-09-09T13:41:21;7.82;;;0.93;;
54259;SDS011;40172;53.022;7.012;2022-09-09T13:43:49;9.88;;;1.35;;
54259;SDS011;40172;53.022;7.012;2022-09-09T13:51:46;6.05;;;1.30;;
54259;SDS011;40172;53.022;7.012;2022-09-09T13:54:14;14.20;;;1.63;;
54259;SDS011;40172;53.022;7.012;2022-09-09T13:56:42;3.53;;;0.95;;
54259;SDS011;40172;53.022;7.012;2022-09-09T13:59:12;9.38;;;1.38;;
54259;SDS011;40172;53.022;7.012;2022-09-09T14:01:39;4.90;;;1.40;;
54259;SDS011;40172;53.022;7.012;2022-09-09T14:04:06;6.05;;;1.48;;
54259;SDS011;40172;53.022;7.012;2022-09-09T14:06:32;7.93;;;1.20;;
54259;SDS011;40172;53.022;7.012;2022-09-09T14:09:03;3.55;;;1.08;;
54259;SDS011;40172;53.022;7.012;2022-09-09T14:11:29;7.63;;;1.75;;
54259;SDS011;40172;53.022;7.012;2022-09-09T14:13:55;9.27;;;1.40;;
54259;SDS011;40172;53.022;7.012;2022-09-09T14:16:21;9.73;;;1.65;;
54259;SDS011;40172;53.022;7.012;2022-09-09T14:18:46;5.00;;;1.50;;
54259;SDS011;40172;53.022;7.012;2022-09-09T14:21:12;7.05;;;1.20;;
54259;SDS011;40172;53.022;7.012;2022-09-09T14:23:38;5.05;;;1.55;;
54259;SDS011;40172;53.022;7.012;2022-09-09T14:26:07;6.60;;;1.42;;
54259;SDS011;40172;53.022;7.012;2022-09-09T14:28:33;6.07;;;1.50;;
54259;SDS011;40172;53.022;7.012;2022-09-09T14:31:01;6.07;;;1.40;;
54259;SDS011;40172;53.022;7.012;2022-09-09T14:33:30;5.07;;;1.40;;
54259;SDS011;40172;53.022;7.012;2022-09-09T14:35:56;5.38;;;1.45;;
54259;SDS011;40172;53.022;7.012;2022-09-09T14:38:23;6.50;;;1.50;;
54259;SDS011;40172;53.022;7.012;2022-09-09T14:40:49;6.40;;;1.50;;
54259;SDS011;40172;53.022;7.012;2022-09-09T14:43:15;5.60;;;1.58;;
54259;SDS011;40172;53.022;7.012;2022-09-09T14:45:40;5.03;;;1.50;;
54259;SDS011;40172;53.022;7.012;2022-09-09T14:48:06;5.53;;;1.60;;
54259;SDS011;40172;53.022;7.012;2022-09-09T14:50:31;5.10;;;1.42;;
54259;SDS011;40172;53.022;7.012;2022-09-09T14:52:57;15.50;;;1.90;;
54259;SDS011;40172;53.022;7.012;2022-09-09T14:55:23;9.25;;;1.50;;
54259;SDS011;40172;53.022;7.012;2022-09-09T14:57:48;5.65;;;1.40;;
54259;SDS011;40172;53.022;7.012;2022-09-09T15:00:14;4.47;;;1.42;;
54259;SDS011;40172;53.022;7.012;2022-09-09T15:02:41;8.13;;;1.45;;
54259;SDS011;40172;53.022;7.012;2022-09-09T15:05:06;5.30;;;1.02;;
54259;SDS011;40172;53.022;7.012;2022-09-09T15:07:33;5.32;;;1.20;;
54259;SDS011;40172;53.022;7.012;2022-09-09T15:09:59;4.07;;;0.80;;
54259;SDS011;40172;53.022;7.012;2022-09-09T15:12:24;3.88;;;0.80;;
54259;SDS011;40172;53.022;7.012;2022-09-09T15:14:50;3.45;;;0.70;;
54259;SDS011;40172;53.022;7.012;2022-09-09T15:17:16;2.25;;;0.40;;
54259;SDS011;40172;53.022;7.012;2022-09-09T15:19:41;0.82;;;0.45;;
54259;SDS011;40172;53.022;7.012;2022-09-09T15:22:07;0.80;;;0.47;;
54259;SDS011;40172;53.022;7.012;2022-09-09T15:24:33;2.35;;;0.73;;
54259;SDS011;40172;53.022;7.012;2022-09-09T15:26:59;1.30;;;0.55;;
54259;SDS011;40172;53.022;7.012;2022-09-09T15:29:26;1.55;;;0.60;;
54259;SDS011;40172;53.022;7.012;2022-09-09T15:31:55;2.13;;;0.60;;
54259;SDS011;40172;53.022;7.012;2022-09-09T15:34:21;3.83;;;0.90;;
54259;SDS011;40172;53.022;7.012;2022-09-09T15:36:47;3.17;;;0.65;;
54259;SDS011;40172;53.022;7.012;2022-09-09T15:39:14;2.15;;;0.70;;
54259;SDS011;40172;53.022;7.012;2022-09-09T15:41:44;3.72;;;0.70;;
54259;SDS011;40172;53.022;7.012;2022-09-09T15:44:12;1.88;;;0.60;;
54259;SDS011;40172;53.022;7.012;2022-09-09T15:46:39;2.72;;;0.82;;
54259;SDS011;40172;53.022;7.012;2022-09-09T15:49:15;2.65;;;0.90;;
54259;SDS011;40172;53.022;7.012;2022-09-09T15:51:55;2.33;;;1.13;;
54259;SDS011;40172;53.022;7.012;2022-09-09T15:54:23;2.17;;;0.80;;
54259;SDS011;40172;53.022;7.012;2022-09-09T15:56:53;2.03;;;0.90;;
54259;SDS011;40172;53.022;7.012;2022-09-09T15:59:21;2.65;;;1.00;;
54259;SDS011;40172;53.022;7.012;2022-09-09T16:01:48;3.53;;;1.13;;
54259;SDS011;40172;53.022;7.012;2022-09-09T16:04:16;2.25;;;0.82;;
54259;SDS011;40172;53.022;7.012;2022-09-09T16:06:55;2.22;;;0.95;;
54259;SDS011;40172;53.022;7.012;2022-09-09T16:09:23;1.83;;;0.68;;
54259;SDS011;40172;53.022;7.012;2022-09-09T16:11:50;3.63;;;0.90;;
54259;SDS011;40172;53.022;7.012;2022-09-09T16:14:18;2.90;;;1.00;;
54259;SDS011;40172;53.022;7.012;2022-09-09T16:16:43;2.65;;;1.02;;
54259;SDS011;40172;53.022;7.012;2022-09-09T16:19:11;2.38;;;0.88;;
54259;SDS011;40172;53.022;7.012;2022-09-09T16:21:45;2.30;;;0.80;;
54259;SDS011;40172;53.022;7.012;2022-09-09T16:24:14;5.70;;;1.17;;
54259;SDS011;40172;53.022;7.012;2022-09-09T16:26:42;2.75;;;0.90;;
54259;SDS011;40172;53.022;7.012;2022-09-09T16:29:12;4.03;;;0.90;;
54259;SDS011;40172;53.022;7.012;2022-09-09T16:31:39;4.45;;;1.20;;
54259;SDS011;40172;53.022;7.012;2022-09-09T16:34:05;3.92;;;1.08;;
54259;SDS011;40172;53.022;7.012;2022-09-09T16:36:32;4.75;;;1.00;;
54259;SDS011;40172;53.022;7.012;2022-09-09T16:39:00;3.22;;;1.00;;
54259;SDS011;40172;53.022;7.012;2022-09-09T16:41:28;4.20;;;1.17;;
54259;SDS011;40172;53.022;7.012;2022-09-09T16:43:58;4.22;;;1.17;;
54259;SDS011;40172;53.022;7.012;2022-09-09T16:46:26;3.78;;;1.23;;
54259;SDS011;40172;53.022;7.012;2022-09-09T16:48:52;5.55;;;1.30;;
54259;SDS011;40172;53.022;7.012;2022-09-09T16:51:21;3.88;;;1.00;;
54259;SDS011;40172;53.022;7.012;2022-09-09T16:53:52;3.85;;;1.13;;
54259;SDS011;40172;53.022;7.012;2022-09-09T16:56:19;4.45;;;1.50;;
54259;SDS011;40172;53.022;7.012;2022-09-09T16:58:54;2.85;;;1.08;;
54259;SDS011;40172;53.022;7.012;2022-09-09T17:01:21;4.22;;;1.20;;
54259;SDS011;40172;53.022;7.012;2022-09-09T17:03:47;5.82;;;1.10;;
54259;SDS011;40172;53.022;7.012;2022-09-09T17:06:16;4.65;;;1.42;;
54259;SDS011;40172;53.022;7.012;2022-09-09T17:08:42;4.38;;;1.25;;
54259;SDS011;40172;53.022;7.012;2022-09-09T17:11:15;3.67;;;1.25;;
54259;SDS011;40172;53.022;7.012;2022-09-09T17:13:43;5.72;;;1.30;;